Time;durP1;ratioP1;P1;durP2;ratioP2;P2;SDS_P1;SDS_P2;PMS_P1;PMS_P2;Temp;Humidity;BMP_temperature;BMP_pressure;BME280_temperature;BME280_humidity;BME280_pressure;Samples;Min_cycle;Max_cycle;Signal;HPM_P1;HPM_P2
2022/06/20 00:01:54;;;;;;;7.80;3.40;;;16.40;1.00;;;;;;6321831;28;20256;-56
2022/06/20 00:05:00;;;;;;;3.30;3.10;;;16.30;1.00;;;;;;6312817;28;20279;-57
2022/06/20 00:08:04;;;;;;;5.53;3.23;;;16.30;1.00;;;;;;6318441;28;20449;-55
2022/06/20 00:11:11;;;;;;;5.30;3.30;;;16.30;1.00;;;;;;6331309;28;20345;-54
2022/06/20 00:14:16;;;;;;;5.93;3.43;;;16.30;1.00;;;;;;6332618;28;20368;-55
2022/06/20 00:17:20;;;;;;;5.80;3.50;;;16.20;1.00;;;;;;6315947;28;20298;-55
2022/06/20 00:20:23;;;;;;;6.07;3.70;;;16.20;1.00;;;;;;6306084;28;20370;-56
2022/06/20 00:23:26;;;;;;;3.73;3.33;;;16.20;1.00;;;;;;6305473;28;20327;-54
2022/06/20 00:26:30;;;;;;;4.53;3.40;;;16.10;1.00;;;;;;6305811;28;20545;-54
2022/06/20 00:29:33;;;;;;;5.20;3.10;;;16.10;1.00;;;;;;6305994;28;20240;-55
2022/06/20 00:32:36;;;;;;;5.90;3.47;;;16.00;1.00;;;;;;6310423;28;20231;-54
2022/06/20 00:35:40;;;;;;;4.40;3.73;;;16.00;1.00;;;;;;6330601;28;20308;-55
2022/06/20 00:38:44;;;;;;;4.30;3.67;;;16.00;1.00;;;;;;6329784;28;20269;-55
2022/06/20 00:41:50;;;;;;;6.03;3.70;;;16.00;1.00;;;;;;6325654;28;20305;-54
2022/06/20 00:44:57;;;;;;;5.97;3.67;;;16.00;1.00;;;;;;6303970;28;20345;-53
2022/06/20 00:48:06;;;;;;;4.83;3.60;;;16.00;1.00;;;;;;6305338;28;20777;-54
2022/06/20 00:51:22;;;;;;;5.70;3.40;;;15.90;1.00;;;;;;6306663;28;20232;-56
2022/06/20 00:54:30;;;;;;;5.67;3.30;;;15.90;1.00;;;;;;6304505;28;20361;-54
2022/06/20 00:57:38;;;;;;;6.90;3.50;;;15.90;1.00;;;;;;6310386;28;20469;-53
2022/06/20 01:00:42;;;;;;;3.93;3.63;;;15.90;1.00;;;;;;6312028;28;20608;-55
2022/06/20 01:03:49;;;;;;;7.63;4.07;;;15.90;1.00;;;;;;6323511;28;20608;-55
2022/06/20 01:06:56;;;;;;;7.47;5.13;;;15.90;1.00;;;;;;6333914;28;20257;-55
2022/06/20 01:10:00;;;;;;;4.67;4.27;;;15.90;1.00;;;;;;6319936;28;20248;-55
2022/06/20 01:13:10;;;;;;;6.67;4.57;;;15.80;1.00;;;;;;6343107;27;20236;-53
2022/06/20 01:16:27;;;;;;;7.97;4.80;;;15.80;1.00;;;;;;6358831;27;20299;-54
2022/06/20 01:19:47;;;;;;;6.97;5.00;;;15.80;1.00;;;;;;6341748;27;20243;-54
2022/06/20 01:23:05;;;;;;;9.47;5.67;;;15.80;1.00;;;;;;6310100;28;20233;-55
2022/06/20 01:26:37;;;;;;;11.03;6.07;;;15.80;1.00;;;;;;6311261;28;20726;-55
2022/06/20 01:29:42;;;;;;;8.47;6.10;;;15.80;1.00;;;;;;6310369;28;20268;-54
2022/06/20 01:32:45;;;;;;;10.33;7.43;;;15.80;1.00;;;;;;6315127;28;20693;-55
2022/06/20 01:39:12;;;;;;;9.80;7.00;;;15.80;1.00;;;;;;6307924;28;20233;-54
2022/06/20 01:42:23;;;;;;;9.80;7.93;;;15.70;1.00;;;;;;6345034;27;20784;-58
2022/06/20 01:48:51;;;;;;;8.53;6.60;;;15.60;1.00;;;;;;6319197;27;20634;-55
2022/06/20 01:51:59;;;;;;;7.97;6.03;;;15.60;1.00;;;;;;6309919;28;20292;-55
2022/06/20 01:55:07;;;;;;;6.47;5.27;;;15.60;1.00;;;;;;6308319;28;20228;-55
2022/06/20 01:58:14;;;;;;;5.30;4.80;;;15.60;1.00;;;;;;6309855;28;20911;-56
2022/06/20 02:01:19;;;;;;;6.77;5.07;;;15.50;1.00;;;;;;6319495;28;20297;-53
2022/06/20 02:04:31;;;;;;;7.17;5.17;;;15.50;1.00;;;;;;6328154;28;20235;-55
2022/06/20 02:07:34;;;;;;;7.93;5.40;;;15.60;1.00;;;;;;6318737;28;20528;-56
2022/06/20 02:10:45;;;;;;;10.93;6.30;;;15.50;1.00;;;;;;6330156;28;20758;-55
2022/06/20 02:13:51;;;;;;;8.47;6.00;;;15.50;1.00;;;;;;6334671;28;20236;-56
2022/06/20 02:17:00;;;;;;;7.93;6.40;;;15.50;1.00;;;;;;6306488;28;20711;-55
2022/06/20 02:20:08;;;;;;;7.03;5.93;;;15.50;1.00;;;;;;6325377;28;20228;-55
2022/06/20 02:23:12;;;;;;;7.20;5.57;;;15.50;1.00;;;;;;6333790;28;20311;-55
2022/06/20 02:26:16;;;;;;;7.57;4.80;;;15.50;1.00;;;;;;6314999;28;20604;-55
2022/06/20 02:29:22;;;;;;;5.60;5.13;;;15.50;1.00;;;;;;6324333;28;20262;-55
2022/06/20 02:32:30;;;;;;;5.90;5.37;;;15.50;1.00;;;;;;6305802;28;20233;-54
2022/06/20 02:35:33;;;;;;;7.93;5.47;;;15.50;1.00;;;;;;6331604;28;20239;-58
2022/06/20 02:38:38;;;;;;;6.00;5.13;;;15.50;1.00;;;;;;6320790;28;20638;-55
2022/06/20 02:41:42;;;;;;;5.67;5.17;;;15.50;1.00;;;;;;6333337;28;20833;-50
2022/06/20 02:44:47;;;;;;;6.90;5.73;;;15.50;1.00;;;;;;6320520;28;20289;-56
2022/06/20 02:47:55;;;;;;;5.97;5.37;;;15.50;1.00;;;;;;6307874;28;20477;-56
2022/06/20 02:51:04;;;;;;;6.33;5.47;;;15.40;1.00;;;;;;6308461;28;20796;-59
2022/06/20 02:54:11;;;;;;;5.37;4.93;;;15.50;1.00;;;;;;6322345;28;20375;-54
2022/06/20 02:57:18;;;;;;;6.80;5.07;;;15.50;1.00;;;;;;6331951;28;20317;-55
2022/06/20 03:00:27;;;;;;;5.03;4.63;;;15.50;1.00;;;;;;6328840;28;20228;-58
2022/06/20 03:03:34;;;;;;;8.80;4.93;;;15.50;1.00;;;;;;6312433;28;20788;-55
2022/06/20 03:06:40;;;;;;;5.80;5.20;;;15.50;1.00;;;;;;6332232;28;20239;-55
2022/06/20 03:09:46;;;;;;;5.50;5.03;;;15.50;1.00;;;;;;6312357;28;20301;-55
2022/06/20 03:12:49;;;;;;;6.93;5.43;;;15.50;1.00;;;;;;6308019;28;20317;-54
2022/06/20 03:15:54;;;;;;;6.13;5.13;;;15.50;1.00;;;;;;6308852;28;20236;-55
2022/06/20 03:19:00;;;;;;;6.60;5.07;;;15.50;1.00;;;;;;6322358;28;20612;-55
2022/06/20 03:22:07;;;;;;;5.80;5.00;;;15.50;1.00;;;;;;6328005;28;20827;-54
2022/06/20 03:25:14;;;;;;;8.27;5.13;;;15.50;1.00;;;;;;6313273;28;20367;-48
2022/06/20 03:28:20;;;;;;;5.90;5.30;;;15.50;1.00;;;;;;6332971;28;20273;-54
2022/06/20 03:31:39;;;;;;;7.83;4.93;;;15.50;1.00;;;;;;6323356;27;20586;-54
2022/06/20 03:34:43;;;;;;;5.60;5.10;;;15.60;1.00;;;;;;6330224;27;20258;-55
2022/06/20 03:37:47;;;;;;;5.50;5.00;;;15.60;1.00;;;;;;6336536;27;20323;-54
2022/06/20 03:40:50;;;;;;;4.97;4.40;;;15.60;1.00;;;;;;6337880;27;20231;-56
2022/06/20 03:43:58;;;;;;;5.63;5.10;;;15.60;1.00;;;;;;6349943;27;20219;-55
2022/06/20 03:47:05;;;;;;;5.37;4.87;;;15.70;1.00;;;;;;6345063;27;20235;-55
2022/06/20 03:50:14;;;;;;;6.10;4.50;;;15.60;1.00;;;;;;6327738;27;20285;-55
2022/06/20 03:53:21;;;;;;;5.90;4.50;;;15.60;1.00;;;;;;6332684;27;20380;-55
2022/06/20 03:56:54;;;;;;;4.83;4.30;;;15.60;1.00;;;;;;6320070;28;20772;-55
2022/06/20 04:00:02;;;;;;;5.23;4.73;;;15.70;1.00;;;;;;6325578;28;20228;-55
2022/06/20 04:03:13;;;;;;;4.07;3.80;;;15.70;1.00;;;;;;6346925;27;20692;-55
2022/06/20 04:06:27;;;;;;;6.57;4.00;;;15.70;1.00;;;;;;6330117;27;20236;-55
2022/06/20 04:13:01;;;;;;;3.77;3.47;;;15.80;1.00;;;;;;6347297;27;20232;-53
2022/06/20 04:16:08;;;;;;;5.40;3.50;;;15.80;1.00;;;;;;6331100;27;20235;-55
2022/06/20 04:19:15;;;;;;;5.50;3.83;;;15.90;1.00;;;;;;6328482;27;20239;-56
2022/06/20 04:22:23;;;;;;;5.10;4.53;;;15.90;1.00;;;;;;6342280;27;20727;-55
2022/06/20 04:25:33;;;;;;;5.30;4.20;;;16.00;1.00;;;;;;6332576;27;20781;-55
2022/06/20 04:28:43;;;;;;;4.20;3.77;;;16.10;1.00;;;;;;6337294;28;20732;-55
2022/06/20 04:31:52;;;;;;;6.10;4.37;;;16.20;1.00;;;;;;6332060;28;20795;-55
2022/06/20 04:35:01;;;;;;;4.53;3.67;;;16.30;1.00;;;;;;6338655;27;20240;-53
2022/06/20 04:38:13;;;;;;;4.47;4.07;;;16.40;1.00;;;;;;6341378;27;20239;-53
2022/06/20 04:41:23;;;;;;;4.10;3.70;;;16.50;1.00;;;;;;6340033;27;20259;-54
2022/06/20 04:44:33;;;;;;;4.47;3.83;;;16.70;1.00;;;;;;6339849;28;20243;-55
2022/06/20 04:47:41;;;;;;;3.73;3.53;;;16.80;1.00;;;;;;6333880;27;20236;-55
2022/06/20 04:50:49;;;;;;;3.90;3.60;;;16.90;1.00;;;;;;6337624;27;20314;-54
2022/06/20 04:53:53;;;;;;;3.90;3.70;;;16.80;1.00;;;;;;6340662;27;20307;-55
2022/06/20 04:56:56;;;;;;;4.10;3.80;;;16.70;1.00;;;;;;6338093;27;20245;-54
2022/06/20 05:00:05;;;;;;;4.07;3.77;;;16.60;1.00;;;;;;6328506;28;20223;-55
2022/06/20 05:03:12;;;;;;;4.07;3.77;;;16.50;1.00;;;;;;6337852;27;20516;-54
2022/06/20 05:06:20;;;;;;;5.73;4.57;;;16.50;1.00;;;;;;6331862;28;20232;-54
2022/06/20 05:09:29;;;;;;;4.77;4.40;;;16.40;1.00;;;;;;6331746;27;20645;-55
2022/06/20 05:12:38;;;;;;;5.30;4.90;;;16.20;1.00;;;;;;6331749;27;20236;-55
2022/06/20 05:15:44;;;;;;;6.33;4.67;;;16.20;1.00;;;;;;6334309;27;20780;-56
2022/06/20 05:18:52;;;;;;;4.93;4.53;;;16.10;1.00;;;;;;6333189;27;20312;-55
2022/06/20 05:21:58;;;;;;;6.33;4.97;;;16.00;1.00;;;;;;6318442;27;20851;-56
2022/06/20 05:25:07;;;;;;;6.40;5.47;;;16.00;1.00;;;;;;6313375;27;20247;-55
2022/06/20 05:28:15;;;;;;;7.37;4.90;;;15.90;1.00;;;;;;6328270;27;20265;-56
2022/06/20 05:31:23;;;;;;;7.83;5.27;;;15.90;1.00;;;;;;6334154;27;20236;-55
2022/06/20 05:34:32;;;;;;;8.13;6.07;;;15.80;1.00;;;;;;6333722;27;20240;-56
2022/06/20 05:37:48;;;;;;;10.53;6.40;;;15.70;1.00;;;;;;6336529;27;20475;-55
2022/06/20 05:40:56;;;;;;;10.70;6.43;;;15.60;1.00;;;;;;6326516;27;20606;-54
2022/06/20 05:44:04;;;;;;;10.37;7.03;;;15.50;1.00;;;;;;6339994;27;20422;-54
2022/06/20 05:47:13;;;;;;;10.53;6.10;;;15.40;1.00;;;;;;6338530;27;20316;-55
2022/06/20 05:50:29;;;;;;;8.40;6.40;;;15.30;1.00;;;;;;6332431;27;20351;-55
2022/06/20 05:53:35;;;;;;;7.90;6.23;;;15.20;1.00;;;;;;6311303;28;20311;-54
2022/06/20 05:56:43;;;;;;;8.30;6.10;;;15.20;1.00;;;;;;6303110;28;20372;-54
2022/06/20 05:59:49;;;;;;;7.77;6.70;;;15.20;1.00;;;;;;6328706;28;20713;-53
2022/06/20 06:02:56;;;;;;;8.80;6.60;;;15.10;1.00;;;;;;6318652;28;20285;-52
2022/06/20 06:06:03;;;;;;;9.97;7.30;;;15.10;1.00;;;;;;6315958;27;20372;-52
2022/06/20 06:09:15;;;;;;;11.30;7.33;;;15.10;1.00;;;;;;6320675;27;20240;-52
2022/06/20 06:12:24;;;;;;;9.17;7.47;;;15.00;1.00;;;;;;6322148;27;20244;-53
2022/06/20 06:15:37;;;;;;;10.97;7.87;;;15.00;1.00;;;;;;6315646;28;20754;-54
2022/06/20 06:19:00;;;;;;;11.00;8.43;;;15.00;1.00;;;;;;6308776;28;20488;-54
2022/06/20 06:22:06;;;;;;;13.27;8.43;;;14.90;1.00;;;;;;6319889;28;20324;-54
2022/06/20 06:25:21;;;;;;;12.50;8.83;;;14.90;1.00;;;;;;6322654;27;20390;-55
2022/06/20 06:28:28;;;;;;;12.93;8.97;;;14.80;1.00;;;;;;6320621;27;20236;-55
2022/06/20 06:31:42;;;;;;;12.30;9.17;;;14.80;1.00;;;;;;6315761;28;20701;-53
2022/06/20 06:34:51;;;;;;;9.57;8.57;;;14.80;1.00;;;;;;6322684;28;20701;-54
2022/06/20 06:37:58;;;;;;;11.57;8.37;;;14.80;1.00;;;;;;6297900;28;20237;-53
2022/06/20 06:41:04;;;;;;;9.20;8.20;;;14.90;1.00;;;;;;6322772;27;20259;-54
2022/06/20 06:44:16;;;;;;;8.50;7.80;;;15.00;1.00;;;;;;6324105;28;20239;-53
2022/06/20 06:47:26;;;;;;;8.33;7.47;;;15.10;1.00;;;;;;6333033;28;20240;-53
2022/06/20 06:50:37;;;;;;;7.37;6.77;;;15.20;1.00;;;;;;6320930;28;20502;-54
2022/06/20 06:53:44;;;;;;;9.03;8.00;;;15.30;1.00;;;;;;6317124;28;20332;-53
2022/06/20 06:56:51;;;;;;;8.80;8.03;;;15.40;1.00;;;;;;6326048;28;20254;-54
2022/06/20 07:00:19;;;;;;;10.20;8.20;;;15.50;1.00;;;;;;6316918;28;20311;-54
2022/06/20 07:03:26;;;;;;;7.70;6.60;;;15.70;1.00;;;;;;6324336;28;20281;-53
2022/06/20 07:06:34;;;;;;;7.27;6.83;;;15.90;1.00;;;;;;6328176;28;20232;-54
2022/06/20 07:09:46;;;;;;;7.33;6.50;;;16.10;1.00;;;;;;6321567;28;20265;-53
2022/06/20 07:12:51;;;;;;;7.40;6.80;;;16.20;1.00;;;;;;6315292;28;20240;-52
2022/06/20 07:15:59;;;;;;;6.87;6.17;;;16.20;1.00;;;;;;6319090;28;20756;-54
2022/06/20 07:19:06;;;;;;;6.67;6.10;;;16.20;1.00;;;;;;6317197;27;20817;-53
2022/06/20 07:22:14;;;;;;;6.30;5.90;;;16.20;1.00;;;;;;6332176;28;20280;-54
2022/06/20 07:25:21;;;;;;;6.47;6.07;;;16.20;1.00;;;;;;6325729;28;20262;-54
2022/06/20 07:28:34;;;;;;;6.57;6.10;;;16.20;1.00;;;;;;6316822;28;20703;-53
2022/06/20 07:31:41;;;;;;;7.57;7.07;;;16.10;1.00;;;;;;6321278;28;20726;-53
2022/06/20 07:34:49;;;;;;;7.50;6.80;;;16.00;1.00;;;;;;6322822;28;20250;-53
2022/06/20 07:37:56;;;;;;;7.20;6.80;;;15.90;1.00;;;;;;6312537;28;20236;-52
2022/06/20 07:41:04;;;;;;;7.70;7.13;;;15.90;1.00;;;;;;6330369;28;20257;-54
2022/06/20 07:44:13;;;;;;;7.63;7.03;;;15.90;1.00;;;;;;6325892;28;20315;-54
2022/06/20 07:47:23;;;;;;;8.50;7.90;;;15.90;1.00;;;;;;6325977;28;20317;-53
2022/06/20 07:50:32;;;;;;;7.37;6.87;;;15.90;1.00;;;;;;6312328;28;20515;-54
2022/06/20 07:53:41;;;;;;;8.13;7.50;;;15.90;1.00;;;;;;6313917;28;20370;-54
2022/06/20 07:56:48;;;;;;;7.37;6.77;;;15.90;1.00;;;;;;6321043;28;20571;-54
2022/06/20 07:59:58;;;;;;;7.57;7.07;;;15.90;1.00;;;;;;6310284;28;20319;-53
2022/06/20 08:03:10;;;;;;;9.07;8.27;;;16.00;1.00;;;;;;6322609;28;20662;-52
2022/06/20 08:06:22;;;;;;;9.07;8.27;;;16.00;1.00;;;;;;6311400;28;20229;-54
2022/06/20 08:09:32;;;;;;;9.47;8.77;;;15.90;1.00;;;;;;6324792;28;20240;-54
2022/06/20 08:12:41;;;;;;;8.33;7.83;;;16.00;1.00;;;;;;6320391;28;20319;-52
2022/06/20 08:15:50;;;;;;;7.50;6.80;;;16.00;1.00;;;;;;6322089;28;20629;-54
2022/06/20 08:18:54;;;;;;;7.20;6.70;;;16.00;1.00;;;;;;6321264;28;20591;-54
2022/06/20 08:22:02;;;;;;;7.13;6.73;;;16.10;1.00;;;;;;6323046;28;20306;-55
2022/06/20 08:25:10;;;;;;;7.97;7.37;;;16.10;1.00;;;;;;6322971;28;20327;-53
2022/06/20 08:28:18;;;;;;;8.63;7.87;;;16.20;1.00;;;;;;6319753;28;20242;-52
2022/06/20 08:31:28;;;;;;;8.77;7.97;;;16.20;1.00;;;;;;6317666;28;20325;-52
2022/06/20 08:34:42;;;;;;;8.47;7.80;;;16.10;1.00;;;;;;6326656;28;20239;-53
2022/06/20 08:37:50;;;;;;;7.87;7.37;;;16.10;1.00;;;;;;6313267;28;20297;-55
2022/06/20 08:41:12;;;;;;;9.77;9.00;;;16.10;1.00;;;;;;6324148;28;20225;-54
2022/06/20 08:45:03;;;;;;;15.53;9.53;;;16.10;1.00;;;;;;6326007;28;20377;-53
2022/06/20 08:48:43;;;;;;;9.33;8.73;;;16.00;1.00;;;;;;6236699;28;20230;-53
2022/06/20 08:52:15;;;;;;;9.70;8.67;;;16.00;1.00;;;;;;6297842;28;20268;-52
2022/06/20 08:55:36;;;;;;;9.97;8.93;;;16.00;1.00;;;;;;6326317;28;20361;-54
2022/06/20 08:58:54;;;;;;;8.37;7.80;;;15.90;1.00;;;;;;6319811;28;20331;-54
2022/06/20 09:02:06;;;;;;;9.07;8.43;;;15.90;1.00;;;;;;6321966;28;20765;-55
2022/06/20 09:05:22;;;;;;;8.97;8.07;;;15.90;1.00;;;;;;6312901;28;20574;-54
2022/06/20 09:09:01;;;;;;;8.57;7.80;;;15.90;1.00;;;;;;6317154;28;20233;-54
2022/06/20 09:12:20;;;;;;;7.80;7.10;;;16.00;1.00;;;;;;6325011;28;20323;-52
2022/06/20 09:15:39;;;;;;;8.00;7.40;;;16.10;1.00;;;;;;6318751;28;20273;-53
2022/06/20 09:19:01;;;;;;;7.97;7.37;;;16.10;1.00;;;;;;6320789;28;20232;-53
2022/06/20 09:22:23;;;;;;;7.77;6.87;;;16.20;1.00;;;;;;6328400;28;20720;-54
2022/06/20 09:25:38;;;;;;;7.40;6.80;;;16.20;1.00;;;;;;6332918;28;20277;-53
2022/06/20 09:29:07;;;;;;;7.53;6.80;;;16.20;1.00;;;;;;6329346;28;20247;-54
2022/06/20 09:32:44;;;;;;;7.77;7.23;;;16.20;1.00;;;;;;6317943;27;20318;-53
2022/06/20 09:36:19;;;;;;;7.90;7.20;;;16.20;1.00;;;;;;6322716;28;20319;-55
2022/06/20 09:39:40;;;;;;;7.00;6.37;;;16.20;1.00;;;;;;6331663;28;20827;-54
2022/06/20 09:42:52;;;;;;;9.13;6.43;;;16.30;1.00;;;;;;6327640;28;20233;-54
2022/06/20 09:46:01;;;;;;;8.23;7.10;;;16.40;1.00;;;;;;6330447;28;20911;-54
2022/06/20 09:49:19;;;;;;;7.13;6.43;;;16.60;1.00;;;;;;6328880;28;20236;-54
2022/06/20 09:52:33;;;;;;;5.93;5.63;;;16.70;1.00;;;;;;6320682;27;20260;-54
2022/06/20 09:55:45;;;;;;;6.80;6.30;;;16.60;1.00;;;;;;6328302;28;20234;-53
2022/06/20 09:59:01;;;;;;;6.73;6.20;;;16.70;1.00;;;;;;6317434;28;20776;-53
2022/06/20 10:02:13;;;;;;;7.33;6.73;;;16.70;1.00;;;;;;6329407;28;20789;-54
2022/06/20 10:05:28;;;;;;;6.60;6.03;;;16.60;1.00;;;;;;6327672;28;20296;-54
2022/06/20 10:08:38;;;;;;;6.77;6.23;;;16.60;1.00;;;;;;6314354;28;20459;-53
2022/06/20 10:11:46;;;;;;;6.93;6.40;;;16.50;1.00;;;;;;6321044;28;20278;-55
2022/06/20 10:14:59;;;;;;;6.83;6.33;;;16.40;1.00;;;;;;6325581;28;20712;-55
2022/06/20 10:18:07;;;;;;;6.60;6.20;;;16.40;1.00;;;;;;6327028;28;20225;-53
2022/06/20 10:21:17;;;;;;;7.57;6.90;;;16.30;1.00;;;;;;6316556;28;20267;-53
2022/06/20 10:24:45;;;;;;;7.27;6.77;;;16.30;1.00;;;;;;6327439;27;20278;-55
2022/06/20 10:27:56;;;;;;;7.40;6.80;;;16.20;1.00;;;;;;6328530;28;20263;-55
2022/06/20 10:31:08;;;;;;;8.33;7.63;;;16.20;1.00;;;;;;6324388;28;20280;-53
2022/06/20 10:34:20;;;;;;;8.93;6.97;;;16.10;1.00;;;;;;6327565;27;20232;-54
2022/06/20 10:37:27;;;;;;;8.17;6.60;;;16.10;1.00;;;;;;6331097;27;20665;-54
2022/06/20 10:40:37;;;;;;;7.10;6.50;;;16.10;1.00;;;;;;6317831;28;20953;-54
2022/06/20 10:43:47;;;;;;;10.23;7.60;;;16.10;1.00;;;;;;6313550;28;20697;-53
2022/06/20 10:47:00;;;;;;;7.83;6.93;;;16.10;1.00;;;;;;6318360;28;20232;-53
2022/06/20 10:50:28;;;;;;;9.20;7.63;;;16.10;1.00;;;;;;6323178;28;20737;-54
2022/06/20 10:53:47;;;;;;;9.60;8.13;;;16.10;1.00;;;;;;6329345;28;20838;-54
2022/06/20 10:57:01;;;;;;;9.23;8.30;;;16.00;1.00;;;;;;6321606;28;20713;-54
2022/06/20 11:00:09;;;;;;;7.20;6.80;;;16.00;1.00;;;;;;6324540;28;20304;-54
2022/06/20 11:03:31;;;;;;;8.63;7.17;;;16.00;1.00;;;;;;6329096;28;20331;-54
2022/06/20 11:06:48;;;;;;;7.23;6.63;;;16.10;1.00;;;;;;6302330;28;20715;-54
2022/06/20 11:10:03;;;;;;;6.17;5.77;;;16.20;1.00;;;;;;6311273;28;20995;-53
2022/06/20 11:13:15;;;;;;;6.87;6.27;;;16.20;1.00;;;;;;6318835;28;20315;-54
2022/06/20 11:16:30;;;;;;;7.53;6.70;;;16.20;1.00;;;;;;6309342;28;20355;-55
2022/06/20 11:19:44;;;;;;;7.20;6.57;;;16.30;1.00;;;;;;6331034;28;20548;-55
2022/06/20 11:22:51;;;;;;;6.63;6.20;;;16.20;1.00;;;;;;6328374;28;20369;-54
2022/06/20 11:26:03;;;;;;;5.10;4.90;;;16.20;1.00;;;;;;6331758;27;20611;-54
2022/06/20 11:29:33;;;;;;;6.37;5.77;;;16.10;1.00;;;;;;6330312;28;20263;-54
2022/06/20 11:32:49;;;;;;;5.87;5.30;;;16.10;1.00;;;;;;6326679;28;20237;-54
2022/06/20 11:35:58;;;;;;;5.13;4.93;;;16.10;1.00;;;;;;6326912;28;20257;-54
2022/06/20 11:39:16;;;;;;;4.90;4.60;;;16.20;1.00;;;;;;6329724;28;20239;-53
2022/06/20 11:42:45;;;;;;;4.53;4.23;;;16.20;1.00;;;;;;6325784;28;20881;-54
2022/06/20 11:46:03;;;;;;;4.80;4.40;;;16.20;1.00;;;;;;6329270;28;20384;-53
2022/06/20 11:49:20;;;;;;;3.93;3.73;;;16.30;1.00;;;;;;6329037;28;20232;-55
2022/06/20 11:52:28;;;;;;;4.20;4.00;;;16.20;1.00;;;;;;6327476;28;20813;-53
2022/06/20 11:55:38;;;;;;;4.80;4.60;;;16.30;1.00;;;;;;6330224;28;20372;-54
2022/06/20 11:59:01;;;;;;;3.87;3.67;;;16.40;1.00;;;;;;6326480;28;20318;-54
2022/06/20 12:02:18;;;;;;;3.37;3.27;;;16.40;1.00;;;;;;6330603;28;20305;-56
2022/06/20 12:05:41;;;;;;;3.17;2.93;;;16.30;1.00;;;;;;6329554;28;20370;-55
2022/06/20 12:08:54;;;;;;;3.27;3.07;;;16.30;1.00;;;;;;6321702;28;20490;-55
2022/06/20 12:12:07;;;;;;;3.13;3.00;;;16.20;1.00;;;;;;6330087;28;20723;-54
2022/06/20 12:15:33;;;;;;;2.63;2.63;;;16.00;1.00;;;;;;6330874;27;20327;-54
2022/06/20 12:23:18;;;;;;;2.90;2.80;;;15.90;1.00;;;;;;6322654;28;20278;-54
2022/06/20 12:25:40;;;;;;;3.70;3.43;;;15.90;1.00;;;;;;6324644;28;20429;-56
2022/06/20 12:28:46;;;;;;;3.70;3.17;;;15.90;1.00;;;;;;6329962;28;20244;-53
2022/06/20 12:31:52;;;;;;;3.07;2.90;;;16.00;1.00;;;;;;6331190;28;20334;-55
2022/06/20 12:35:01;;;;;;;3.13;2.90;;;16.00;1.00;;;;;;6325064;28;20232;-55
2022/06/20 12:38:14;;;;;;;3.00;2.90;;;15.90;1.00;;;;;;6327527;28;20326;-54
2022/06/20 12:41:22;;;;;;;3.57;3.27;;;16.00;1.00;;;;;;6329202;28;20232;-55
2022/06/20 12:44:47;;;;;;;4.87;3.63;;;16.00;1.00;;;;;;6330665;28;20353;-55
2022/06/20 12:48:17;;;;;;;4.40;4.10;;;16.10;1.00;;;;;;6329434;28;20282;-55
2022/06/20 12:51:29;;;;;;;4.73;3.40;;;15.90;1.00;;;;;;6328476;28;20486;-55
2022/06/20 12:54:51;;;;;;;3.10;2.90;;;16.00;1.00;;;;;;6333313;28;20232;-54
2022/06/20 12:58:10;;;;;;;3.00;2.90;;;16.00;1.00;;;;;;6334711;28;20228;-55
2022/06/20 13:01:21;;;;;;;2.90;2.80;;;15.80;1.00;;;;;;6330962;28;21192;-54
2022/06/20 13:04:41;;;;;;;2.77;2.70;;;15.80;1.00;;;;;;6333940;28;20585;-53
2022/06/20 13:08:03;;;;;;;4.87;3.03;;;15.90;1.00;;;;;;6328936;28;20273;-54
2022/06/20 13:11:19;;;;;;;3.07;2.97;;;15.80;1.00;;;;;;6334363;28;20319;-54
2022/06/20 13:14:42;;;;;;;3.20;2.93;;;15.90;1.00;;;;;;6335746;27;20500;-55
2022/06/20 13:17:53;;;;;;;2.93;2.83;;;15.90;1.00;;;;;;6331240;28;20419;-55
2022/06/20 13:21:02;;;;;;;4.03;3.83;;;15.90;1.00;;;;;;6334534;28;20772;-54
2022/06/20 13:24:25;;;;;;;3.10;2.97;;;15.90;1.00;;;;;;6329217;28;20949;-54
2022/06/20 13:27:43;;;;;;;3.07;2.70;;;15.90;1.00;;;;;;6333830;27;20449;-55
2022/06/20 13:31:00;;;;;;;2.70;2.60;;;16.00;1.00;;;;;;6335062;28;20224;-54
2022/06/20 13:34:11;;;;;;;3.30;2.60;;;16.00;1.00;;;;;;6325254;28;20243;-55
2022/06/20 13:37:25;;;;;;;2.93;2.50;;;16.20;1.00;;;;;;6329868;28;20791;-48
2022/06/20 13:40:43;;;;;;;2.67;2.57;;;16.30;1.00;;;;;;6331866;28;20689;-53
2022/06/20 13:44:00;;;;;;;2.40;2.37;;;16.40;1.00;;;;;;6333124;28;20373;-55
2022/06/20 13:47:18;;;;;;;2.70;2.57;;;16.60;1.00;;;;;;6333455;28;20584;-55
2022/06/20 13:50:26;;;;;;;2.90;2.77;;;16.60;1.00;;;;;;6331090;28;20330;-56
2022/06/20 13:53:34;;;;;;;2.63;2.53;;;16.60;1.00;;;;;;6332285;28;20244;-56
2022/06/20 13:56:43;;;;;;;2.80;2.60;;;16.70;1.00;;;;;;6327964;27;20239;-55
2022/06/20 13:59:54;;;;;;;3.97;3.53;;;16.60;1.00;;;;;;6323439;27;20236;-54
2022/06/20 14:03:14;;;;;;;3.10;3.00;;;16.60;1.00;;;;;;6334033;27;20235;-57
2022/06/20 14:06:24;;;;;;;3.10;3.00;;;16.60;1.00;;;;;;6334641;28;20681;-54
2022/06/20 14:09:30;;;;;;;3.50;3.40;;;16.40;1.00;;;;;;6331055;28;20346;-55
2022/06/20 14:12:36;;;;;;;3.77;3.57;;;16.30;1.00;;;;;;6334827;28;20327;-56
2022/06/20 14:15:41;;;;;;;4.33;3.93;;;16.20;1.00;;;;;;6334360;28;20267;-55
2022/06/20 14:18:49;;;;;;;4.43;4.20;;;16.20;1.00;;;;;;6330955;28;20269;-54
2022/06/20 14:21:57;;;;;;;4.67;4.47;;;16.20;1.00;;;;;;6334135;28;20315;-54
2022/06/20 14:25:03;;;;;;;4.97;4.67;;;16.10;1.00;;;;;;6331256;28;20317;-55
2022/06/20 14:28:22;;;;;;;5.90;4.80;;;16.10;1.00;;;;;;6333361;28;20326;-56
2022/06/20 14:31:28;;;;;;;4.97;4.77;;;16.00;1.00;;;;;;6332597;27;20270;-55
2022/06/20 14:35:20;;;;;;;5.60;5.20;;;16.10;1.00;;;;;;6327586;28;20237;-55
2022/06/20 14:38:15;;;;;;;5.00;4.70;;;16.10;1.00;;;;;;6326661;28;20657;-55
2022/06/20 14:41:40;;;;;;;5.40;5.10;;;16.30;1.00;;;;;;6332852;27;20236;-56
2022/06/20 14:44:49;;;;;;;6.03;5.60;;;16.50;1.00;;;;;;6325761;28;20315;-56
2022/06/20 14:48:00;;;;;;;5.73;5.30;;;16.40;1.00;;;;;;6332145;28;20244;-55
2022/06/20 14:51:13;;;;;;;5.90;5.37;;;16.40;1.00;;;;;;6330679;27;20570;-55
2022/06/20 14:54:20;;;;;;;6.00;5.60;;;16.50;1.00;;;;;;6330374;28;20365;-55
2022/06/20 14:57:31;;;;;;;6.50;5.70;;;16.70;1.00;;;;;;6333501;27;20248;-55
2022/06/20 15:00:38;;;;;;;13.50;5.63;;;16.90;1.00;;;;;;6322556;28;20240;-54
2022/06/20 15:03:47;;;;;;;7.57;5.60;;;17.00;1.00;;;;;;6325870;27;20240;-54
2022/06/20 15:07:11;;;;;;;5.90;5.33;;;17.20;1.00;;;;;;6317203;27;20244;-53
2022/06/20 15:10:23;;;;;;;6.17;5.63;;;17.30;1.00;;;;;;6328649;28;20297;-56
2022/06/20 15:13:42;;;;;;;6.83;5.40;;;17.40;1.00;;;;;;6333461;27;20920;-56
2022/06/20 15:16:49;;;;;;;5.00;4.60;;;17.70;1.00;;;;;;6332460;27;20232;-55
2022/06/20 15:19:59;;;;;;;5.70;5.20;;;17.90;1.00;;;;;;6333314;28;20681;-54
2022/06/20 15:23:15;;;;;;;4.63;4.43;;;18.10;1.00;;;;;;6328646;27;20638;-54
2022/06/20 15:26:24;;;;;;;5.43;4.90;;;18.30;1.00;;;;;;6324973;28;20223;-56
2022/06/20 15:29:45;;;;;;;5.00;4.60;;;18.50;1.00;;;;;;6330053;27;20350;-56
2022/06/20 15:32:49;;;;;;;6.63;4.13;;;18.50;1.00;;;;;;6325595;28;20416;-55
2022/06/20 15:35:57;;;;;;;4.30;3.90;;;18.40;1.00;;;;;;6327022;27;20292;-56
2022/06/20 15:39:10;;;;;;;4.63;4.43;;;18.20;1.00;;;;;;6329084;28;20761;-55
2022/06/20 15:42:22;;;;;;;4.47;4.17;;;18.20;1.00;;;;;;6330349;28;20633;-56
2022/06/20 15:45:30;;;;;;;4.13;3.80;;;18.10;1.00;;;;;;6332903;28;20233;-55
2022/06/20 15:48:38;;;;;;;4.63;4.13;;;18.10;1.00;;;;;;6329232;28;20243;-56
2022/06/20 15:51:50;;;;;;;4.43;4.23;;;18.10;1.00;;;;;;6332595;28;20240;-55
2022/06/20 15:55:28;;;;;;;4.70;4.43;;;18.00;1.00;;;;;;6329897;27;20242;-56
2022/06/20 15:58:59;;;;;;;4.20;3.83;;;18.10;1.00;;;;;;6324850;28;20236;-55
2022/06/20 16:02:21;;;;;;;4.17;3.93;;;18.30;1.00;;;;;;6325640;28;20238;-56
2022/06/20 16:05:32;;;;;;;5.00;4.67;;;18.50;1.00;;;;;;6324588;28;20578;-56
2022/06/20 16:08:44;;;;;;;5.13;4.50;;;18.50;1.00;;;;;;6316798;28;20300;-56
2022/06/20 16:11:51;;;;;;;4.60;4.27;;;18.50;1.00;;;;;;6306482;28;20234;-55
2022/06/20 16:15:06;;;;;;;6.50;4.53;;;18.60;1.00;;;;;;6325095;28;20727;-56
2022/06/20 16:18:13;;;;;;;8.40;4.90;;;18.70;1.00;;;;;;6328144;28;20373;-55
2022/06/20 16:21:20;;;;;;;4.87;4.40;;;18.80;1.00;;;;;;6326611;28;20259;-56
2022/06/20 16:24:32;;;;;;;4.73;4.37;;;18.80;1.00;;;;;;6324213;28;20327;-56
2022/06/20 16:27:43;;;;;;;5.27;4.77;;;18.60;1.00;;;;;;6326860;28;20247;-55
2022/06/20 16:30:59;;;;;;;4.80;4.50;;;18.60;1.00;;;;;;6332361;28;20235;-57
2022/06/20 16:34:02;;;;;;;4.80;4.50;;;18.50;1.00;;;;;;6322904;28;20244;-55
2022/06/20 16:37:06;;;;;;;7.53;4.10;;;18.60;1.00;;;;;;6322621;28;20326;-55
2022/06/20 16:40:14;;;;;;;5.17;4.77;;;18.50;1.00;;;;;;6329549;28;20299;-56
2022/06/20 16:43:29;;;;;;;4.40;4.00;;;18.50;1.00;;;;;;6328086;28;20232;-54
2022/06/20 16:46:39;;;;;;;6.07;4.67;;;18.50;1.00;;;;;;6325707;28;20242;-55
2022/06/20 16:49:50;;;;;;;4.70;4.30;;;18.50;1.00;;;;;;6322007;28;20244;-54
2022/06/20 16:53:23;;;;;;;5.00;4.60;;;18.50;1.00;;;;;;6329133;28;20232;-56
2022/06/20 16:56:32;;;;;;;5.97;5.37;;;18.50;1.00;;;;;;6328750;28;20361;-55
2022/06/20 16:59:45;;;;;;;6.17;5.20;;;18.50;1.00;;;;;;6327000;28;20236;-55
2022/06/20 17:02:53;;;;;;;5.40;5.00;;;18.40;1.00;;;;;;6316595;28;20491;-55